sensor_id;sensor_type;location;lat;lon;timestamp;pressure;altitude;pressure_sealevel;temperature;humidity
58243;BME280;50118;53.232;8.252;2024-02-21T00:01:22;101749.50;;;8.07;100.00
58243;BME280;50118;53.232;8.252;2024-02-21T00:03:47;101737.53;;;8.01;100.00
58243;BME280;50118;53.232;8.252;2024-02-21T00:06:13;101738.91;;;8.07;100.00
58243;BME280;50118;53.232;8.252;2024-02-21T00:08:39;101742.28;;;8.09;100.00
58243;BME280;50118;53.232;8.252;2024-02-21T00:11:04;101731.38;;;8.13;100.00
58243;BME280;50118;53.232;8.252;2024-02-21T00:13:30;101734.25;;;7.97;100.00
58243;BME280;50118;53.232;8.252;2024-02-21T00:15:55;101730.09;;;8.06;100.00
58243;BME280;50118;53.232;8.252;2024-02-21T00:18:21;101719.50;;;8.06;100.00
58243;BME280;50118;53.232;8.252;2024-02-21T00:20:47;101738.69;;;8.10;100.00
58243;BME280;50118;53.232;8.252;2024-02-21T00:23:12;101721.41;;;8.04;100.00
58243;BME280;50118;53.232;8.252;2024-02-21T00:25:38;101742.44;;;8.07;100.00
58243;BME280;50118;53.232;8.252;2024-02-21T00:28:04;101728.72;;;8.13;100.00
58243;BME280;50118;53.232;8.252;2024-02-21T00:30:31;101731.03;;;8.05;100.00
58243;BME280;50118;53.232;8.252;2024-02-21T00:32:56;101739.44;;;8.12;100.00
58243;BME280;50118;53.232;8.252;2024-02-21T00:35:22;101729.47;;;8.15;100.00
58243;BME280;50118;53.232;8.252;2024-02-21T00:37:48;101733.69;;;8.05;100.00
58243;BME280;50118;53.232;8.252;2024-02-21T00:40:16;101736.25;;;8.07;100.00
58243;BME280;50118;53.232;8.252;2024-02-21T00:42:48;101717.38;;;8.11;100.00
58243;BME280;50118;53.232;8.252;2024-02-21T00:45:14;101726.06;;;8.13;100.00
58243;BME280;50118;53.232;8.252;2024-02-21T00:47:39;101722.13;;;8.06;100.00
58243;BME280;50118;53.232;8.252;2024-02-21T00:50:05;101723.41;;;8.13;100.00
58243;BME280;50118;53.232;8.252;2024-02-21T00:52:33;101709.19;;;8.14;100.00
58243;BME280;50118;53.232;8.252;2024-02-21T00:54:58;101721.94;;;8.22;100.00
58243;BME280;50118;53.232;8.252;2024-02-21T00:57:26;101718.22;;;8.25;100.00
58243;BME280;50118;53.232;8.252;2024-02-21T00:59:51;101702.38;;;8.10;100.00
58243;BME280;50118;53.232;8.252;2024-02-21T01:02:17;101697.41;;;8.18;100.00
58243;BME280;50118;53.232;8.252;2024-02-21T01:04:42;101691.47;;;8.15;100.00
58243;BME280;50118;53.232;8.252;2024-02-21T01:07:08;101691.47;;;8.15;100.00
58243;BME280;50118;53.232;8.252;2024-02-21T01:09:33;101679.81;;;8.17;100.00
58243;BME280;50118;53.232;8.252;2024-02-21T01:12:02;101685.63;;;8.22;100.00
58243;BME280;50118;53.232;8.252;2024-02-21T01:14:28;101684.25;;;8.17;100.00
58243;BME280;50118;53.232;8.252;2024-02-21T01:16:53;101688.72;;;8.16;100.00
58243;BME280;50118;53.232;8.252;2024-02-21T01:19:19;101680.00;;;8.14;100.00
58243;BME280;50118;53.232;8.252;2024-02-21T01:21:44;101664.28;;;8.11;100.00
58243;BME280;50118;53.232;8.252;2024-02-21T01:24:10;101656.44;;;8.22;100.00
58243;BME280;50118;53.232;8.252;2024-02-21T01:26:35;101641.47;;;8.21;100.00
58243;BME280;50118;53.232;8.252;2024-02-21T01:29:01;101620.75;;;8.14;100.00
58243;BME280;50118;53.232;8.252;2024-02-21T01:31:26;101613.97;;;8.22;100.00
58243;BME280;50118;53.232;8.252;2024-02-21T01:33:51;101596.13;;;8.25;100.00
58243;BME280;50118;53.232;8.252;2024-02-21T01:36:17;101587.84;;;8.16;100.00
58243;BME280;50118;53.232;8.252;2024-02-21T01:38:43;101582.56;;;8.16;100.00
58243;BME280;50118;53.232;8.252;2024-02-21T01:41:09;101582.13;;;8.10;100.00
58243;BME280;50118;53.232;8.252;2024-02-21T01:43:35;101569.38;;;8.15;100.00
58243;BME280;50118;53.232;8.252;2024-02-21T01:46:00;101577.03;;;8.07;100.00
58243;BME280;50118;53.232;8.252;2024-02-21T01:48:26;101571.00;;;8.04;100.00
58243;BME280;50118;53.232;8.252;2024-02-21T01:50:54;101560.91;;;8.10;100.00
58243;BME280;50118;53.232;8.252;2024-02-21T01:53:22;101567.50;;;8.04;100.00
58243;BME280;50118;53.232;8.252;2024-02-21T01:55:48;101562.50;;;8.12;100.00
58243;BME280;50118;53.232;8.252;2024-02-21T01:58:15;101570.75;;;8.20;100.00
58243;BME280;50118;53.232;8.252;2024-02-21T02:00:42;101575.78;;;8.12;100.00
58243;BME280;50118;53.232;8.252;2024-02-21T02:03:12;101577.66;;;8.10;100.00
58243;BME280;50118;53.232;8.252;2024-02-21T02:05:45;101589.03;;;8.12;100.00
58243;BME280;50118;53.232;8.252;2024-02-21T02:08:18;101587.44;;;8.10;100.00
58243;BME280;50118;53.232;8.252;2024-02-21T02:10:45;101576.41;;;8.03;100.00
58243;BME280;50118;53.232;8.252;2024-02-21T02:13:13;101572.34;;;8.10;100.00
58243;BME280;50118;53.232;8.252;2024-02-21T02:15:43;101569.50;;;8.13;100.00
58243;BME280;50118;53.232;8.252;2024-02-21T02:18:09;101567.47;;;8.17;100.00
58243;BME280;50118;53.232;8.252;2024-02-21T02:20:35;101580.53;;;8.20;100.00
58243;BME280;50118;53.232;8.252;2024-02-21T02:23:11;101592.31;;;8.16;100.00
58243;BME280;50118;53.232;8.252;2024-02-21T02:25:38;101596.03;;;8.13;100.00
58243;BME280;50118;53.232;8.252;2024-02-21T02:28:05;101587.84;;;8.16;100.00
58243;BME280;50118;53.232;8.252;2024-02-21T02:30:35;101587.22;;;8.13;100.00
58243;BME280;50118;53.232;8.252;2024-02-21T02:33:04;101591.03;;;8.21;100.00
58243;BME280;50118;53.232;8.252;2024-02-21T02:35:31;101563.66;;;8.08;100.00
58243;BME280;50118;53.232;8.252;2024-02-21T02:37:57;101581.50;;;8.06;100.00
58243;BME280;50118;53.232;8.252;2024-02-21T02:40:23;101571.09;;;8.03;100.00
58243;BME280;50118;53.232;8.252;2024-02-21T02:42:49;101572.34;;;8.10;100.00
58243;BME280;50118;53.232;8.252;2024-02-21T02:45:15;101567.69;;;8.14;100.00
58243;BME280;50118;53.232;8.252;2024-02-21T02:47:41;101582.97;;;8.10;100.00
58243;BME280;50118;53.232;8.252;2024-02-21T02:50:07;101581.09;;;8.12;100.00
58243;BME280;50118;53.232;8.252;2024-02-21T02:52:33;101567.69;;;8.14;100.00
58243;BME280;50118;53.232;8.252;2024-02-21T02:54:59;101570.00;;;8.18;100.00
58243;BME280;50118;53.232;8.252;2024-02-21T02:57:24;101571.72;;;8.19;100.00
58243;BME280;50118;53.232;8.252;2024-02-21T02:59:51;101576.00;;;8.09;100.00
58243;BME280;50118;53.232;8.252;2024-02-21T03:02:17;101555.50;;;8.11;100.00
58243;BME280;50118;53.232;8.252;2024-02-21T03:04:45;101562.63;;;7.98;100.00
58243;BME280;50118;53.232;8.252;2024-02-21T03:07:11;101567.28;;;7.94;100.00
58243;BME280;50118;53.232;8.252;2024-02-21T03:09:37;101559.88;;;7.86;100.00
58243;BME280;50118;53.232;8.252;2024-02-21T03:12:04;101560.09;;;7.83;100.00
58243;BME280;50118;53.232;8.252;2024-02-21T03:14:29;101564.53;;;7.83;100.00
58243;BME280;50118;53.232;8.252;2024-02-21T03:16:58;101548.44;;;7.73;100.00
58243;BME280;50118;53.232;8.252;2024-02-21T03:19:24;101545.03;;;7.71;100.00
58243;BME280;50118;53.232;8.252;2024-02-21T03:21:50;101539.97;;;7.68;100.00
58243;BME280;50118;53.232;8.252;2024-02-21T03:24:16;101529.09;;;7.71;100.00
58243;BME280;50118;53.232;8.252;2024-02-21T03:26:42;101531.03;;;7.69;100.00
58243;BME280;50118;53.232;8.252;2024-02-21T03:29:08;101519.81;;;7.53;100.00
58243;BME280;50118;53.232;8.252;2024-02-21T03:31:37;101523.59;;;7.48;100.00
58243;BME280;50118;53.232;8.252;2024-02-21T03:34:03;101531.06;;;7.56;100.00
58243;BME280;50118;53.232;8.252;2024-02-21T03:36:28;101528.72;;;7.52;100.00
58243;BME280;50118;53.232;8.252;2024-02-21T03:38:54;101525.31;;;7.50;100.00
58243;BME280;50118;53.232;8.252;2024-02-21T03:41:20;101508.69;;;7.47;100.00
58243;BME280;50118;53.232;8.252;2024-02-21T03:43:46;101518.31;;;7.48;100.00
58243;BME280;50118;53.232;8.252;2024-02-21T03:46:11;101516.41;;;7.51;100.00
58243;BME280;50118;53.232;8.252;2024-02-21T03:48:37;101516.19;;;7.41;100.00
58243;BME280;50118;53.232;8.252;2024-02-21T03:51:02;101513.97;;;7.47;100.00
58243;BME280;50118;53.232;8.252;2024-02-21T03:53:28;101511.84;;;7.40;100.00
58243;BME280;50118;53.232;8.252;2024-02-21T03:55:54;101514.28;;;7.43;100.00
58243;BME280;50118;53.232;8.252;2024-02-21T03:58:20;101518.53;;;7.33;100.00
58243;BME280;50118;53.232;8.252;2024-02-21T04:00:46;101519.38;;;7.33;100.00
58243;BME280;50118;53.232;8.252;2024-02-21T04:03:11;101514.28;;;7.30;100.00
58243;BME280;50118;53.232;8.252;2024-02-21T04:05:37;101522.03;;;7.46;100.00
58243;BME280;50118;53.232;8.252;2024-02-21T04:08:06;101519.38;;;7.33;100.00
58243;BME280;50118;53.232;8.252;2024-02-21T04:10:31;101522.00;;;7.33;100.00
58243;BME280;50118;53.232;8.252;2024-02-21T04:12:57;101512.16;;;7.35;100.00
58243;BME280;50118;53.232;8.252;2024-02-21T04:15:23;101504.31;;;7.34;100.00
58243;BME280;50118;53.232;8.252;2024-02-21T04:17:48;101512.16;;;7.35;100.00
58243;BME280;50118;53.232;8.252;2024-02-21T04:20:15;101514.59;;;7.38;100.00
58243;BME280;50118;53.232;8.252;2024-02-21T04:22:44;101517.97;;;7.40;100.00
58243;BME280;50118;53.232;8.252;2024-02-21T04:25:12;101511.75;;;7.41;100.00
58243;BME280;50118;53.232;8.252;2024-02-21T04:27:38;101507.06;;;7.45;100.00
58243;BME280;50118;53.232;8.252;2024-02-21T04:30:04;101508.34;;;7.39;100.00
58243;BME280;50118;53.232;8.252;2024-02-21T04:32:30;101503.25;;;7.36;100.00
58243;BME280;50118;53.232;8.252;2024-02-21T04:34:55;101504.97;;;7.37;100.00
58243;BME280;50118;53.232;8.252;2024-02-21T04:37:21;101501.56;;;7.35;100.00
58243;BME280;50118;53.232;8.252;2024-02-21T04:39:48;101501.34;;;7.38;100.00
58243;BME280;50118;53.232;8.252;2024-02-21T04:42:13;101511.22;;;7.36;100.00
58243;BME280;50118;53.232;8.252;2024-02-21T04:44:39;101505.38;;;7.31;100.00
58243;BME280;50118;53.232;8.252;2024-02-21T04:47:05;101507.09;;;7.32;100.00
58243;BME280;50118;53.232;8.252;2024-02-21T04:49:33;101503.16;;;7.38;100.00
58243;BME280;50118;53.232;8.252;2024-02-21T04:51:59;101500.94;;;7.44;100.00
58243;BME280;50118;53.232;8.252;2024-02-21T04:54:25;101500.31;;;7.41;100.00
58243;BME280;50118;53.232;8.252;2024-02-21T04:56:51;101505.81;;;7.38;100.00
58243;BME280;50118;53.232;8.252;2024-02-21T04:59:17;101509.81;;;7.43;100.00
58243;BME280;50118;53.232;8.252;2024-02-21T05:01:42;101497.97;;;7.36;100.00
58243;BME280;50118;53.232;8.252;2024-02-21T05:04:08;101510.28;;;7.37;100.00
58243;BME280;50118;53.232;8.252;2024-02-21T05:06:38;101494.38;;;7.37;100.00
58243;BME280;50118;53.232;8.252;2024-02-21T05:09:04;101501.25;;;7.40;100.00
58243;BME280;50118;53.232;8.252;2024-02-21T05:11:30;101496.69;;;7.42;100.00
58243;BME280;50118;53.232;8.252;2024-02-21T05:13:56;101491.78;;;7.48;100.00
58243;BME280;50118;53.232;8.252;2024-02-21T05:16:21;101487.56;;;7.46;100.00
58243;BME280;50118;53.232;8.252;2024-02-21T05:18:46;101487.56;;;7.46;100.00
58243;BME280;50118;53.232;8.252;2024-02-21T05:21:12;101489.69;;;7.41;100.00
58243;BME280;50118;53.232;8.252;2024-02-21T05:23:38;101473.91;;;7.39;100.00
58243;BME280;50118;53.232;8.252;2024-02-21T05:26:05;101483.53;;;7.40;100.00
58243;BME280;50118;53.232;8.252;2024-02-21T05:28:30;101472.09;;;7.40;100.00
58243;BME280;50118;53.232;8.252;2024-02-21T05:30:56;101471.66;;;7.46;100.00
58243;BME280;50118;53.232;8.252;2024-02-21T05:33:22;101474.63;;;7.41;100.00
58243;BME280;50118;53.232;8.252;2024-02-21T05:35:48;101468.59;;;7.39;100.00
58243;BME280;50118;53.232;8.252;2024-02-21T05:38:16;101472.81;;;7.42;100.00
58243;BME280;50118;53.232;8.252;2024-02-21T05:40:42;101470.06;;;7.43;100.00
58243;BME280;50118;53.232;8.252;2024-02-21T05:43:08;101459.56;;;7.42;100.00
58243;BME280;50118;53.232;8.252;2024-02-21T05:45:34;101458.84;;;7.40;100.00
58243;BME280;50118;53.232;8.252;2024-02-21T05:47:59;101460.22;;;7.33;100.00
58243;BME280;50118;53.232;8.252;2024-02-21T05:50:25;101459.78;;;7.39;100.00
58243;BME280;50118;53.232;8.252;2024-02-21T05:52:52;101453.00;;;7.47;100.00
58243;BME280;50118;53.232;8.252;2024-02-21T05:55:18;101450.66;;;7.43;100.00
58243;BME280;50118;53.232;8.252;2024-02-21T05:57:44;101447.28;;;7.41;100.00
58243;BME280;50118;53.232;8.252;2024-02-21T06:00:09;101453.53;;;7.40;100.00
58243;BME280;50118;53.232;8.252;2024-02-21T06:02:35;101456.28;;;7.51;100.00
58243;BME280;50118;53.232;8.252;2024-02-21T06:05:00;101452.69;;;7.39;100.00
58243;BME280;50118;53.232;8.252;2024-02-21T06:07:26;101451.97;;;7.37;100.00
58243;BME280;50118;53.232;8.252;2024-02-21T06:09:51;101448.44;;;7.37;100.00
58243;BME280;50118;53.232;8.252;2024-02-21T06:12:17;101435.09;;;7.38;100.00
58243;BME280;50118;53.232;8.252;2024-02-21T06:14:42;101440.28;;;7.40;100.00
58243;BME280;50118;53.232;8.252;2024-02-21T06:17:08;101440.19;;;7.41;100.00
58243;BME280;50118;53.232;8.252;2024-02-21T06:19:33;101442.81;;;7.41;100.00
58243;BME280;50118;53.232;8.252;2024-02-21T06:21:59;101440.69;;;7.46;100.00
58243;BME280;50118;53.232;8.252;2024-02-21T06:24:24;101449.84;;;7.42;100.00
58243;BME280;50118;53.232;8.252;2024-02-21T06:26:50;101457.25;;;7.37;100.00
58243;BME280;50118;53.232;8.252;2024-02-21T06:29:15;101437.94;;;7.35;100.00
58243;BME280;50118;53.232;8.252;2024-02-21T06:31:41;101447.91;;;7.44;100.00
58243;BME280;50118;53.232;8.252;2024-02-21T06:34:06;101462.94;;;7.44;100.00
58243;BME280;50118;53.232;8.252;2024-02-21T06:36:32;101447.03;;;7.44;100.00
58243;BME280;50118;53.232;8.252;2024-02-21T06:38:58;101463.63;;;7.47;100.00
58243;BME280;50118;53.232;8.252;2024-02-21T06:41:24;101461.81;;;7.48;100.00
58243;BME280;50118;53.232;8.252;2024-02-21T06:43:50;101449.38;;;7.48;100.00
58243;BME280;50118;53.232;8.252;2024-02-21T06:46:23;101450.75;;;7.54;100.00
58243;BME280;50118;53.232;8.252;2024-02-21T06:48:49;101445.69;;;7.51;100.00
58243;BME280;50118;53.232;8.252;2024-02-21T06:51:15;101444.91;;;7.49;100.00
58243;BME280;50118;53.232;8.252;2024-02-21T06:53:41;101444.09;;;7.48;100.00
58243;BME280;50118;53.232;8.252;2024-02-21T06:56:07;101441.94;;;7.54;100.00
58243;BME280;50118;53.232;8.252;2024-02-21T06:58:33;101434.31;;;7.49;100.00
58243;BME280;50118;53.232;8.252;2024-02-21T07:00:58;101435.19;;;7.50;100.00
58243;BME280;50118;53.232;8.252;2024-02-21T07:03:24;101438.78;;;7.48;100.00
58243;BME280;50118;53.232;8.252;2024-02-21T07:05:50;101443.88;;;7.52;100.00
58243;BME280;50118;53.232;8.252;2024-02-21T07:08:15;101445.59;;;7.53;100.00
58243;BME280;50118;53.232;8.252;2024-02-21T07:10:41;101443.44;;;7.45;100.00
58243;BME280;50118;53.232;8.252;2024-02-21T07:13:06;101452.88;;;7.49;100.00
58243;BME280;50118;53.232;8.252;2024-02-21T07:15:32;101434.78;;;7.43;100.00
58243;BME280;50118;53.232;8.252;2024-02-21T07:17:58;101439.00;;;7.45;100.00
58243;BME280;50118;53.232;8.252;2024-02-21T07:20:24;101438.34;;;7.55;100.00
58243;BME280;50118;53.232;8.252;2024-02-21T07:22:50;101445.34;;;7.56;100.00
58243;BME280;50118;53.232;8.252;2024-02-21T07:25:21;101438.47;;;7.53;100.00
58243;BME280;50118;53.232;8.252;2024-02-21T07:27:46;101453.81;;;7.61;100.00
58243;BME280;50118;53.232;8.252;2024-02-21T07:30:12;101452.44;;;7.55;100.00
58243;BME280;50118;53.232;8.252;2024-02-21T07:32:38;101452.66;;;7.65;100.00
58243;BME280;50118;53.232;8.252;2024-02-21T07:35:04;101463.16;;;7.54;100.00
58243;BME280;50118;53.232;8.252;2024-02-21T07:37:30;101457.97;;;7.65;100.00
58243;BME280;50118;53.232;8.252;2024-02-21T07:39:56;101445.97;;;7.59;100.00
58243;BME280;50118;53.232;8.252;2024-02-21T07:42:22;101455.09;;;7.55;100.00
58243;BME280;50118;53.232;8.252;2024-02-21T07:44:56;101449.06;;;7.53;100.00
58243;BME280;50118;53.232;8.252;2024-02-21T07:47:30;101459.13;;;7.61;100.00
58243;BME280;50118;53.232;8.252;2024-02-21T07:49:56;101443.25;;;7.48;100.00
58243;BME280;50118;53.232;8.252;2024-02-21T07:52:24;101437.63;;;7.53;100.00
58243;BME280;50118;53.232;8.252;2024-02-21T07:54:52;101456.25;;;7.64;100.00
58243;BME280;50118;53.232;8.252;2024-02-21T07:57:18;101448.50;;;7.61;100.00
58243;BME280;50118;53.232;8.252;2024-02-21T07:59:44;101453.41;;;7.67;100.00
58243;BME280;50118;53.232;8.252;2024-02-21T08:02:09;101443.44;;;7.58;100.00
58243;BME280;50118;53.232;8.252;2024-02-21T08:04:35;101449.59;;;7.58;100.00
58243;BME280;50118;53.232;8.252;2024-02-21T08:07:00;101434.72;;;7.56;100.00
58243;BME280;50118;53.232;8.252;2024-02-21T08:09:28;101422.97;;;7.60;100.00
58243;BME280;50118;53.232;8.252;2024-02-21T08:11:59;101436.22;;;7.60;100.00
58243;BME280;50118;53.232;8.252;2024-02-21T08:14:25;101423.72;;;7.62;100.00
58243;BME280;50118;53.232;8.252;2024-02-21T08:16:51;101429.63;;;7.65;100.00
58243;BME280;50118;53.232;8.252;2024-02-21T08:19:19;101426.78;;;7.69;100.00
58243;BME280;50118;53.232;8.252;2024-02-21T08:21:45;101428.13;;;7.74;100.00
58243;BME280;50118;53.232;8.252;2024-02-21T08:24:14;101432.38;;;7.64;100.00
58243;BME280;50118;53.232;8.252;2024-02-21T08:26:49;101426.97;;;7.78;100.00
58243;BME280;50118;53.232;8.252;2024-02-21T08:29:14;101425.03;;;7.80;100.00
58243;BME280;50118;53.232;8.252;2024-02-21T08:31:40;101418.81;;;7.69;100.00
58243;BME280;50118;53.232;8.252;2024-02-21T08:34:05;101426.00;;;7.79;100.00
58243;BME280;50118;53.232;8.252;2024-02-21T08:36:32;101412.06;;;7.89;100.00
58243;BME280;50118;53.232;8.252;2024-02-21T08:38:58;101422.19;;;7.83;100.00
58243;BME280;50118;53.232;8.252;2024-02-21T08:41:24;101409.66;;;7.85;100.00
58243;BME280;50118;53.232;8.252;2024-02-21T08:43:53;101398.41;;;7.82;100.00
58243;BME280;50118;53.232;8.252;2024-02-21T08:46:22;101394.16;;;7.79;100.00
58243;BME280;50118;53.232;8.252;2024-02-21T08:48:49;101398.72;;;7.77;100.00
58243;BME280;50118;53.232;8.252;2024-02-21T08:51:18;101396.59;;;7.82;100.00
58243;BME280;50118;53.232;8.252;2024-02-21T08:53:47;101389.25;;;7.86;100.00
58243;BME280;50118;53.232;8.252;2024-02-21T08:56:13;101388.31;;;7.87;100.00
58243;BME280;50118;53.232;8.252;2024-02-21T08:58:42;101396.22;;;8.00;100.00
58243;BME280;50118;53.232;8.252;2024-02-21T09:01:07;101390.91;;;8.00;100.00
58243;BME280;50118;53.232;8.252;2024-02-21T09:03:42;101389.25;;;8.10;100.00
58243;BME280;50118;53.232;8.252;2024-02-21T09:06:09;101395.84;;;8.17;100.00
58243;BME280;50118;53.232;8.252;2024-02-21T09:08:35;101394.63;;;8.21;100.00
58243;BME280;50118;53.232;8.252;2024-02-21T09:11:01;101386.47;;;8.00;100.00
58243;BME280;50118;53.232;8.252;2024-02-21T09:13:27;101384.47;;;7.91;100.00
58243;BME280;50118;53.232;8.252;2024-02-21T09:15:52;101390.69;;;8.03;100.00
58243;BME280;50118;53.232;8.252;2024-02-21T09:18:18;101389.88;;;8.14;100.00
58243;BME280;50118;53.232;8.252;2024-02-21T09:20:44;101388.31;;;8.11;100.00
58243;BME280;50118;53.232;8.252;2024-02-21T09:23:13;101381.56;;;8.07;100.00
58243;BME280;50118;53.232;8.252;2024-02-21T09:25:39;101387.69;;;8.08;100.00
58243;BME280;50118;53.232;8.252;2024-02-21T09:28:05;101389.16;;;8.12;100.00
58243;BME280;50118;53.232;8.252;2024-02-21T09:30:31;101390.47;;;8.06;100.00
58243;BME280;50118;53.232;8.252;2024-02-21T09:32:58;101387.53;;;7.98;100.00
58243;BME280;50118;53.232;8.252;2024-02-21T09:35:28;101373.97;;;7.90;100.00
58243;BME280;50118;53.232;8.252;2024-02-21T09:37:54;101359.97;;;7.88;100.00
58243;BME280;50118;53.232;8.252;2024-02-21T09:40:20;101377.00;;;7.72;100.00
58243;BME280;50118;53.232;8.252;2024-02-21T09:42:47;101375.88;;;7.88;100.00
58243;BME280;50118;53.232;8.252;2024-02-21T09:45:21;101380.97;;;7.91;100.00
58243;BME280;50118;53.232;8.252;2024-02-21T09:50:34;101366.28;;;7.98;100.00
58243;BME280;50118;53.232;8.252;2024-02-21T09:53:04;101372.09;;;8.03;100.00
58243;BME280;50118;53.232;8.252;2024-02-21T09:55:32;101362.09;;;7.95;100.00
58243;BME280;50118;53.232;8.252;2024-02-21T09:58:01;101348.94;;;7.94;100.00
58243;BME280;50118;53.232;8.252;2024-02-21T10:00:42;101350.59;;;7.95;100.00
58243;BME280;50118;53.232;8.252;2024-02-21T10:03:33;101332.00;;;7.83;100.00
58243;BME280;50118;53.232;8.252;2024-02-21T10:06:21;101347.22;;;7.93;100.00
58243;BME280;50118;53.232;8.252;2024-02-21T10:08:53;101352.31;;;7.96;100.00
58243;BME280;50118;53.232;8.252;2024-02-21T10:11:25;101343.13;;;7.89;100.00
58243;BME280;50118;53.232;8.252;2024-02-21T10:13:51;101337.06;;;7.86;100.00
58243;BME280;50118;53.232;8.252;2024-02-21T10:16:16;101329.38;;;7.95;100.00
58243;BME280;50118;53.232;8.252;2024-02-21T10:18:42;101328.94;;;8.01;100.00
58243;BME280;50118;53.232;8.252;2024-02-21T10:21:08;101325.19;;;8.03;100.00
58243;BME280;50118;53.232;8.252;2024-02-21T10:23:47;101319.63;;;7.95;100.00
58243;BME280;50118;53.232;8.252;2024-02-21T10:26:14;101318.00;;;8.06;100.00
58243;BME280;50118;53.232;8.252;2024-02-21T10:28:41;101326.72;;;7.95;100.00
58243;BME280;50118;53.232;8.252;2024-02-21T10:31:08;101316.47;;;7.90;100.00
58243;BME280;50118;53.232;8.252;2024-02-21T10:33:35;101311.28;;;7.89;100.00
58243;BME280;50118;53.232;8.252;2024-02-21T10:36:10;101316.47;;;7.90;100.00
58243;BME280;50118;53.232;8.252;2024-02-21T10:38:39;101311.22;;;7.77;100.00
58243;BME280;50118;53.232;8.252;2024-02-21T10:41:10;101315.38;;;7.93;100.00
58243;BME280;50118;53.232;8.252;2024-02-21T10:43:40;101302.41;;;8.01;100.00
58243;BME280;50118;53.232;8.252;2024-02-21T10:46:09;101308.94;;;8.08;100.00
58243;BME280;50118;53.232;8.252;2024-02-21T10:48:45;101304.84;;;8.04;100.00
58243;BME280;50118;53.232;8.252;2024-02-21T10:51:18;101301.69;;;8.10;100.00
58243;BME280;50118;53.232;8.252;2024-02-21T10:53:46;101289.03;;;8.02;100.00
58243;BME280;50118;53.232;8.252;2024-02-21T10:56:31;101293.41;;;8.15;100.00
58243;BME280;50118;53.232;8.252;2024-02-21T10:59:02;101284.63;;;8.26;100.00
58243;BME280;50118;53.232;8.252;2024-02-21T11:01:28;101280.06;;;8.39;100.00
58243;BME280;50118;53.232;8.252;2024-02-21T11:03:58;101278.91;;;8.54;100.00
58243;BME280;50118;53.232;8.252;2024-02-21T11:06:26;101282.44;;;8.66;100.00
58243;BME280;50118;53.232;8.252;2024-02-21T11:09:06;101276.03;;;8.69;100.00
58243;BME280;50118;53.232;8.252;2024-02-21T11:16:41;101252.84;;;8.93;100.00
58243;BME280;50118;53.232;8.252;2024-02-21T11:19:28;101254.31;;;8.97;100.00
58243;BME280;50118;53.232;8.252;2024-02-21T11:21:54;101245.59;;;9.18;100.00
58243;BME280;50118;53.232;8.252;2024-02-21T11:24:30;101237.97;;;9.13;100.00
58243;BME280;50118;53.232;8.252;2024-02-21T11:27:16;101234.88;;;9.41;100.00
58243;BME280;50118;53.232;8.252;2024-02-21T11:29:49;101231.97;;;9.44;100.00
58243;BME280;50118;53.232;8.252;2024-02-21T11:32:17;101216.47;;;9.16;100.00
58243;BME280;50118;53.232;8.252;2024-02-21T11:35:01;101214.50;;;9.30;100.00
58243;BME280;50118;53.232;8.252;2024-02-21T11:37:29;101216.75;;;9.46;100.00
58243;BME280;50118;53.232;8.252;2024-02-21T11:39:56;101217.63;;;9.67;100.00
58243;BME280;50118;53.232;8.252;2024-02-21T11:42:21;101217.56;;;9.79;100.00
58243;BME280;50118;53.232;8.252;2024-02-21T11:44:47;101214.59;;;9.93;100.00
58243;BME280;50118;53.232;8.252;2024-02-21T11:47:14;101204.78;;;9.94;100.00
58243;BME280;50118;53.232;8.252;2024-02-21T11:49:46;101198.19;;;9.88;100.00
58243;BME280;50118;53.232;8.252;2024-02-21T11:52:14;101197.97;;;9.80;100.00
58243;BME280;50118;53.232;8.252;2024-02-21T11:54:44;101183.38;;;9.95;100.00
58243;BME280;50118;53.232;8.252;2024-02-21T11:57:10;101186.59;;;9.57;100.00
58243;BME280;50118;53.232;8.252;2024-02-21T11:59:36;101187.16;;;9.60;100.00
58243;BME280;50118;53.232;8.252;2024-02-21T12:02:03;101178.44;;;9.69;100.00
58243;BME280;50118;53.232;8.252;2024-02-21T12:04:29;101166.84;;;9.70;100.00
58243;BME280;50118;53.232;8.252;2024-02-21T12:06:57;101166.34;;;9.44;100.00
58243;BME280;50118;53.232;8.252;2024-02-21T12:09:24;101155.47;;;9.47;100.00
58243;BME280;50118;53.232;8.252;2024-02-21T12:12:05;101157.41;;;9.45;100.00
58243;BME280;50118;53.232;8.252;2024-02-21T12:14:33;101152.25;;;9.32;100.00
58243;BME280;50118;53.232;8.252;2024-02-21T12:16:59;101150.88;;;9.70;100.00
58243;BME280;50118;53.232;8.252;2024-02-21T12:19:26;101142.50;;;9.54;100.00
58243;BME280;50118;53.232;8.252;2024-02-21T12:21:51;101135.75;;;9.71;100.00
58243;BME280;50118;53.232;8.252;2024-02-21T12:24:25;101131.31;;;9.60;100.00
58243;BME280;50118;53.232;8.252;2024-02-21T12:26:54;101131.47;;;9.80;100.00
58243;BME280;50118;53.232;8.252;2024-02-21T12:29:20;101130.56;;;9.69;100.00
58243;BME280;50118;53.232;8.252;2024-02-21T12:31:46;101112.00;;;9.79;100.00
58243;BME280;50118;53.232;8.252;2024-02-21T12:34:13;101123.03;;;9.75;100.00
58243;BME280;50118;53.232;8.252;2024-02-21T12:36:42;101102.06;;;9.60;100.00
58243;BME280;50118;53.232;8.252;2024-02-21T12:39:09;101102.06;;;9.60;100.00
58243;BME280;50118;53.232;8.252;2024-02-21T12:41:35;101102.34;;;9.57;100.00
58243;BME280;50118;53.232;8.252;2024-02-21T12:44:10;101095.28;;;9.67;100.00
58243;BME280;50118;53.232;8.252;2024-02-21T12:46:37;101082.69;;;9.69;100.00
58243;BME280;50118;53.232;8.252;2024-02-21T12:49:03;101079.50;;;9.76;100.00
58243;BME280;50118;53.232;8.252;2024-02-21T12:51:29;101085.47;;;9.68;100.00
58243;BME280;50118;53.232;8.252;2024-02-21T12:53:55;101075.97;;;9.75;100.00
58243;BME280;50118;53.232;8.252;2024-02-21T12:56:20;101067.63;;;9.80;100.00
58243;BME280;50118;53.232;8.252;2024-02-21T12:58:46;101073.63;;;9.82;100.00